Time;durP1;ratioP1;P1;durP2;ratioP2;P2;SDS_P1;SDS_P2;PMS_P1;PMS_P2;Temp;Humidity;BMP_temperature;BMP_pressure;BME280_temperature;BME280_humidity;BME280_pressure;Samples;Min_cycle;Max_cycle;Signal;HPM_P1;HPM_P2
2023/05/24 00:01:36;;;;;;;8.32;5.40;;;21.90;66.80;;;;;;4887603;28;88968;-89
2023/05/24 00:04:02;;;;;;;10.50;6.07;;;21.80;66.70;;;;;;4889622;28;88901;-84
2023/05/24 00:06:28;;;;;;;8.02;4.68;;;21.80;66.70;;;;;;4889657;28;87677;-86
2023/05/24 00:08:54;;;;;;;9.20;4.78;;;21.80;66.60;;;;;;4890069;28;87066;-85
2023/05/24 00:11:19;;;;;;;10.32;4.93;;;21.80;66.60;;;;;;4887723;28;90745;-83
2023/05/24 00:13:45;;;;;;;11.55;6.05;;;21.80;66.60;;;;;;4887982;28;90759;-87
2023/05/24 00:16:11;;;;;;;10.68;5.13;;;21.80;66.80;;;;;;4888818;28;87464;-87
2023/05/24 00:18:39;;;;;;;8.88;5.13;;;21.80;66.80;;;;;;4887860;28;88410;-85
2023/05/24 00:21:09;;;;;;;11.07;6.10;;;21.80;66.70;;;;;;4887638;28;91109;-86
2023/05/24 00:23:36;;;;;;;9.30;5.05;;;21.80;66.70;;;;;;4903336;28;89747;-86
2023/05/24 00:26:02;;;;;;;9.50;5.10;;;21.80;66.80;;;;;;4888023;28;88845;-87
2023/05/24 00:28:30;;;;;;;8.23;5.10;;;21.80;66.90;;;;;;4890002;28;88070;-84
2023/05/24 00:30:58;;;;;;;9.38;5.18;;;21.80;67.00;;;;;;4888976;28;88633;-86
2023/05/24 00:33:24;;;;;;;10.00;5.30;;;21.80;66.80;;;;;;4887962;28;87498;-87
2023/05/24 00:35:55;;;;;;;9.30;5.72;;;21.70;66.70;;;;;;4887809;28;87901;-84
2023/05/24 00:38:25;;;;;;;10.43;5.68;;;21.80;66.90;;;;;;4889375;28;87418;-85
2023/05/24 00:40:51;;;;;;;9.07;5.72;;;21.70;66.70;;;;;;4888635;28;87724;-84
2023/05/24 00:43:18;;;;;;;7.78;5.18;;;21.70;66.70;;;;;;4888645;28;87703;-85
2023/05/24 00:45:44;;;;;;;10.60;5.75;;;21.70;66.80;;;;;;4890356;28;87808;-86
2023/05/24 00:48:10;;;;;;;8.13;5.03;;;21.70;66.80;;;;;;4887802;28;87614;-84
2023/05/24 00:50:38;;;;;;;8.45;4.93;;;21.70;66.80;;;;;;4887330;28;91661;-85
2023/05/24 00:53:05;;;;;;;7.43;4.88;;;21.70;66.80;;;;;;4888135;28;89063;-88
2023/05/24 00:55:32;;;;;;;9.32;5.15;;;21.70;66.90;;;;;;4885148;28;88079;-85
2023/05/24 00:57:59;;;;;;;9.50;5.25;;;21.70;66.90;;;;;;4885848;28;87199;-85
2023/05/24 01:00:26;;;;;;;11.20;5.22;;;21.60;66.80;;;;;;4884252;28;89698;-88
2023/05/24 01:02:53;;;;;;;9.23;5.53;;;21.70;66.80;;;;;;4886148;28;88222;-88
2023/05/24 01:05:20;;;;;;;8.43;4.57;;;21.60;66.90;;;;;;4884551;28;88214;-87
2023/05/24 01:08:08;;;;;;;7.35;4.00;;;21.60;66.80;;;;;;4886892;28;87382;-84
2023/05/24 01:10:45;;;;;;;7.85;5.10;;;21.60;66.80;;;;;;4886139;28;87759;-87
2023/05/24 01:13:30;;;;;;;9.25;4.97;;;21.60;66.90;;;;;;4900187;28;88974;-88
2023/05/24 01:16:10;;;;;;;6.82;4.25;;;21.60;66.90;;;;;;4900352;28;88053;-87
2023/05/24 01:18:43;;;;;;;7.68;4.20;;;21.60;66.80;;;;;;4885639;28;90901;-85
2023/05/24 01:21:12;;;;;;;11.23;5.15;;;21.60;66.80;;;;;;4885182;28;88646;-86
2023/05/24 01:24:00;;;;;;;8.75;4.80;;;21.60;66.70;;;;;;4885103;28;87813;-85
2023/05/24 01:27:02;;;;;;;8.65;4.63;;;21.60;66.60;;;;;;4886175;28;87525;-88
2023/05/24 01:29:30;;;;;;;8.05;4.68;;;21.60;66.80;;;;;;4885575;28;87321;-84
2023/05/24 01:31:56;;;;;;;7.20;4.70;;;21.60;66.80;;;;;;4900663;28;91039;-88
2023/05/24 01:34:23;;;;;;;8.02;4.70;;;21.50;66.80;;;;;;4886388;28;87710;-85
2023/05/24 01:36:49;;;;;;;9.27;5.00;;;21.50;67.00;;;;;;4885016;28;87563;-85
2023/05/24 01:39:15;;;;;;;7.88;4.47;;;21.50;66.80;;;;;;4886576;28;87056;-83
2023/05/24 01:41:56;;;;;;;8.32;4.45;;;21.50;67.00;;;;;;4886368;28;90025;-85
2023/05/24 01:44:33;;;;;;;5.85;4.50;;;21.50;66.80;;;;;;4886532;28;88704;-85
2023/05/24 01:47:34;;;;;;;7.30;4.28;;;21.50;66.80;;;;;;4884290;28;88398;-85
2023/05/24 01:50:10;;;;;;;8.30;4.82;;;21.50;66.70;;;;;;4872114;28;87894;-86
2023/05/24 01:52:36;;;;;;;7.32;4.10;;;21.50;66.70;;;;;;4885161;28;88278;-86
2023/05/24 01:55:05;;;;;;;7.82;4.70;;;21.50;66.60;;;;;;4883796;28;90806;-85
2023/05/24 01:57:34;;;;;;;7.68;4.28;;;21.50;66.70;;;;;;4883972;28;88065;-85
2023/05/24 02:00:02;;;;;;;8.13;4.73;;;21.50;66.70;;;;;;4885217;28;87762;-85
2023/05/24 02:02:28;;;;;;;6.22;4.10;;;21.50;66.70;;;;;;4883291;28;89123;-85
2023/05/24 02:04:55;;;;;;;6.78;4.18;;;21.50;66.80;;;;;;4884601;28;88906;-86
2023/05/24 02:07:20;;;;;;;7.35;4.45;;;21.50;66.70;;;;;;4883201;28;88652;-84
2023/05/24 02:09:46;;;;;;;8.85;4.35;;;21.50;66.70;;;;;;4884260;28;88261;-85
2023/05/24 02:12:11;;;;;;;7.70;4.82;;;21.50;66.70;;;;;;4885860;28;88944;-89
2023/05/24 02:14:37;;;;;;;7.90;4.82;;;21.50;66.70;;;;;;4885301;28;88170;-85
2023/05/24 02:17:04;;;;;;;8.80;5.03;;;21.50;66.80;;;;;;4884440;28;87834;-86
2023/05/24 02:19:30;;;;;;;6.65;4.50;;;21.50;66.80;;;;;;4883607;28;89128;-85
2023/05/24 02:21:56;;;;;;;8.18;4.15;;;21.50;66.70;;;;;;4886009;28;88347;-85
2023/05/24 02:24:21;;;;;;;6.68;4.55;;;21.50;66.70;;;;;;4884353;28;88794;-86
2023/05/24 02:26:47;;;;;;;8.13;4.18;;;21.40;66.70;;;;;;4884783;28;87123;-85
2023/05/24 02:29:13;;;;;;;6.85;4.60;;;21.40;67.50;;;;;;4899398;28;87601;-87
2023/05/24 02:31:38;;;;;;;6.60;4.22;;;21.40;66.60;;;;;;4882904;28;90172;-85
2023/05/24 02:34:04;;;;;;;7.45;4.28;;;21.40;66.70;;;;;;4884461;28;88951;-85
2023/05/24 02:36:31;;;;;;;7.95;4.97;;;21.40;66.60;;;;;;4885282;28;87406;-87
2023/05/24 02:38:57;;;;;;;7.50;4.47;;;21.40;66.70;;;;;;4886123;28;87610;-85
2023/05/24 02:41:22;;;;;;;7.38;4.63;;;21.40;66.60;;;;;;4884797;28;87938;-85
2023/05/24 02:43:48;;;;;;;7.45;4.30;;;21.40;66.60;;;;;;4884582;28;87484;-85
2023/05/24 02:46:14;;;;;;;7.25;4.40;;;21.40;66.60;;;;;;4883800;28;90281;-85
2023/05/24 02:48:40;;;;;;;8.02;4.38;;;21.40;66.60;;;;;;4887956;28;87041;-86
2023/05/24 02:51:06;;;;;;;6.10;4.00;;;21.40;66.70;;;;;;4883394;28;90267;-88
2023/05/24 02:53:32;;;;;;;6.43;4.13;;;21.40;66.70;;;;;;4885465;28;87852;-85
2023/05/24 02:55:58;;;;;;;9.18;4.15;;;21.30;66.60;;;;;;4884829;28;89189;-84
2023/05/24 02:58:27;;;;;;;8.10;4.32;;;21.30;66.70;;;;;;4885122;28;88239;-87
2023/05/24 03:00:53;;;;;;;7.32;4.10;;;21.30;66.60;;;;;;4884100;28;90769;-85
2023/05/24 03:03:19;;;;;;;5.63;3.85;;;21.30;66.60;;;;;;4884309;28;87935;-86
2023/05/24 03:05:45;;;;;;;7.97;4.32;;;21.30;66.60;;;;;;4883630;28;87079;-88
2023/05/24 03:08:11;;;;;;;7.03;3.97;;;21.30;66.60;;;;;;4885205;28;88414;-85
2023/05/24 03:10:36;;;;;;;7.35;3.90;;;21.30;66.40;;;;;;4882880;28;90968;-86
2023/05/24 03:13:02;;;;;;;5.68;3.67;;;21.30;66.40;;;;;;4883826;28;90773;-86
2023/05/24 03:15:28;;;;;;;6.18;4.18;;;21.30;66.40;;;;;;4883335;28;88311;-88
2023/05/24 03:17:53;;;;;;;6.35;3.97;;;21.30;66.50;;;;;;4901357;28;88791;-86
2023/05/24 03:20:19;;;;;;;6.50;3.80;;;21.30;66.60;;;;;;4887370;28;88723;-88
2023/05/24 03:22:45;;;;;;;7.38;4.30;;;21.30;66.30;;;;;;4888386;28;88651;-87
2023/05/24 03:25:11;;;;;;;6.07;3.95;;;21.30;66.30;;;;;;4888138;28;87478;-88
2023/05/24 03:27:37;;;;;;;6.50;4.25;;;21.30;66.30;;;;;;4888964;28;87825;-88
2023/05/24 03:30:05;;;;;;;6.55;3.95;;;21.30;66.30;;;;;;4888738;28;88735;-84
2023/05/24 03:32:31;;;;;;;7.30;4.60;;;21.30;66.30;;;;;;4902192;28;91024;-89
2023/05/24 03:34:59;;;;;;;5.25;3.70;;;21.30;66.30;;;;;;4885924;28;87965;-85
2023/05/24 03:37:25;;;;;;;6.78;4.10;;;21.30;66.00;;;;;;4886226;28;89903;-85
2023/05/24 03:39:50;;;;;;;6.85;4.05;;;21.30;66.50;;;;;;4893451;28;87636;-87
2023/05/24 03:42:16;;;;;;;5.43;3.80;;;21.30;66.20;;;;;;4889699;28;87410;-87
2023/05/24 03:44:42;;;;;;;5.85;3.65;;;21.30;66.20;;;;;;4886340;28;88699;-85
2023/05/24 03:47:08;;;;;;;6.03;4.30;;;21.30;66.20;;;;;;4888272;28;88025;-86
2023/05/24 03:49:34;;;;;;;6.50;3.70;;;21.30;66.10;;;;;;4889882;28;88324;-85
2023/05/24 03:51:59;;;;;;;5.35;3.53;;;21.30;66.30;;;;;;4895046;28;90729;-86
2023/05/24 03:54:25;;;;;;;4.35;3.50;;;21.30;66.20;;;;;;4890349;28;86934;-88
2023/05/24 03:56:52;;;;;;;6.70;4.07;;;21.30;66.20;;;;;;4889976;28;90746;-85
2023/05/24 03:59:18;;;;;;;6.47;4.07;;;21.30;66.30;;;;;;4893318;28;90480;-87
2023/05/24 04:01:44;;;;;;;6.57;3.85;;;21.30;66.90;;;;;;4891243;28;87158;-87
2023/05/24 04:04:10;;;;;;;6.57;3.72;;;21.30;66.10;;;;;;4889941;28;86991;-85
2023/05/24 04:06:36;;;;;;;5.82;3.88;;;21.30;66.10;;;;;;4891151;28;88931;-86
2023/05/24 04:09:04;;;;;;;5.88;3.85;;;21.30;66.00;;;;;;4894357;28;89446;-85
2023/05/24 04:11:31;;;;;;;5.75;3.63;;;21.20;66.10;;;;;;4890787;28;87617;-86
2023/05/24 04:13:59;;;;;;;5.75;3.65;;;21.20;66.10;;;;;;4891173;28;87895;-85
2023/05/24 04:16:25;;;;;;;5.57;3.67;;;21.20;66.00;;;;;;4887759;28;89151;-87
2023/05/24 04:18:51;;;;;;;5.10;3.22;;;21.20;65.90;;;;;;4889871;28;87316;-85
2023/05/24 04:21:16;;;;;;;4.47;3.17;;;21.20;66.00;;;;;;4890799;28;90076;-88
2023/05/24 04:23:42;;;;;;;5.05;3.78;;;21.20;65.90;;;;;;4886787;28;88094;-85
2023/05/24 04:26:09;;;;;;;5.78;3.67;;;21.20;65.80;;;;;;4892990;28;86280;-86
2023/05/24 04:28:36;;;;;;;4.93;3.47;;;21.20;65.90;;;;;;4889882;28;91078;-87
2023/05/24 04:31:05;;;;;;;8.43;3.47;;;21.30;66.00;;;;;;4889046;28;90815;-86
2023/05/24 04:33:31;;;;;;;4.80;3.28;;;21.30;66.10;;;;;;4866187;28;89534;-86
2023/05/24 04:35:59;;;;;;;5.25;3.67;;;21.30;65.90;;;;;;4883117;28;87540;-87
2023/05/24 04:38:28;;;;;;;4.40;3.00;;;21.30;65.80;;;;;;4887172;28;88138;-87
2023/05/24 04:40:55;;;;;;;5.57;3.67;;;21.30;65.60;;;;;;4887672;28;88393;-87
2023/05/24 04:43:21;;;;;;;6.28;3.85;;;21.40;65.60;;;;;;4886915;28;88187;-86
2023/05/24 04:45:47;;;;;;;5.13;3.40;;;21.40;65.70;;;;;;4886558;28;87821;-86
2023/05/24 04:48:12;;;;;;;4.90;3.55;;;21.40;65.30;;;;;;4885593;28;90796;-85
2023/05/24 04:50:38;;;;;;;5.30;3.60;;;21.50;65.40;;;;;;4888341;28;87684;-84
2023/05/24 04:53:04;;;;;;;4.85;3.13;;;21.50;65.40;;;;;;4877455;28;87722;-84
2023/05/24 04:55:31;;;;;;;5.03;3.50;;;21.60;65.20;;;;;;4887582;28;87248;-85
2023/05/24 04:57:57;;;;;;;4.57;3.05;;;21.60;65.00;;;;;;4887098;28;88812;-87
2023/05/24 05:00:22;;;;;;;6.32;3.50;;;21.60;64.90;;;;;;4887155;28;89700;-86
2023/05/24 05:02:48;;;;;;;6.40;3.35;;;21.60;65.10;;;;;;4887253;28;87672;-87
2023/05/24 05:05:15;;;;;;;4.53;3.15;;;21.60;65.20;;;;;;4888426;28;86960;-85
2023/05/24 05:07:40;;;;;;;5.38;3.50;;;21.50;65.20;;;;;;4887492;28;87766;-86
2023/05/24 05:10:07;;;;;;;4.38;3.00;;;21.50;65.20;;;;;;4887399;28;88141;-86
2023/05/24 05:12:32;;;;;;;5.13;3.10;;;21.60;64.90;;;;;;4888565;28;87323;-86
2023/05/24 05:14:58;;;;;;;4.93;3.65;;;21.60;65.00;;;;;;4887598;28;87184;-86
2023/05/24 05:17:23;;;;;;;4.35;2.88;;;21.70;65.10;;;;;;4885205;28;92005;-86
2023/05/24 05:19:49;;;;;;;4.60;3.35;;;21.60;65.10;;;;;;4886467;28;87488;-86
2023/05/24 05:22:15;;;;;;;5.95;3.55;;;21.60;65.40;;;;;;4899057;28;89610;-87
2023/05/24 05:24:41;;;;;;;5.10;3.53;;;21.60;65.70;;;;;;4886298;28;87120;-86
2023/05/24 05:27:06;;;;;;;5.40;3.55;;;21.60;66.00;;;;;;4886019;28;89650;-86
2023/05/24 05:29:32;;;;;;;5.45;3.70;;;21.70;65.40;;;;;;4887388;28;87448;-87
2023/05/24 05:31:57;;;;;;;5.90;3.65;;;21.70;65.50;;;;;;4884905;28;89076;-87
2023/05/24 05:34:23;;;;;;;6.10;3.35;;;21.60;65.40;;;;;;4885698;28;87612;-85
2023/05/24 05:36:49;;;;;;;4.05;2.95;;;21.70;65.80;;;;;;4887280;28;88698;-90
2023/05/24 05:39:14;;;;;;;6.82;3.67;;;21.80;65.50;;;;;;4886495;28;86827;-90
2023/05/24 05:41:44;;;;;;;7.28;3.33;;;21.70;65.60;;;;;;4884498;28;87781;-86
2023/05/24 05:44:11;;;;;;;6.28;3.78;;;21.80;65.00;;;;;;4888439;28;88565;-88
2023/05/24 05:46:38;;;;;;;7.28;4.05;;;21.70;65.30;;;;;;4884417;28;89718;-87
2023/05/24 05:49:04;;;;;;;7.97;3.53;;;21.70;65.10;;;;;;4887388;28;88680;-88
2023/05/24 05:51:30;;;;;;;7.57;3.78;;;21.70;66.10;;;;;;4885691;28;87736;-90
2023/05/24 05:53:56;;;;;;;5.03;3.35;;;21.70;65.40;;;;;;4885426;28;88229;-88
2023/05/24 05:56:21;;;;;;;6.60;3.78;;;21.70;65.50;;;;;;4887030;28;89029;-87
2023/05/24 05:58:47;;;;;;;7.38;3.65;;;21.70;65.60;;;;;;4885336;28;89571;-87
2023/05/24 06:01:14;;;;;;;5.30;3.33;;;21.70;65.70;;;;;;4901607;28;87775;-85
2023/05/24 06:03:41;;;;;;;5.75;3.38;;;21.70;65.90;;;;;;4887491;28;87550;-88
2023/05/24 06:06:06;;;;;;;5.88;3.65;;;21.70;66.00;;;;;;4896630;28;88164;-86
2023/05/24 06:08:33;;;;;;;8.98;3.17;;;21.90;65.20;;;;;;4878950;28;90169;-84
2023/05/24 06:11:00;;;;;;;6.00;3.38;;;21.90;65.10;;;;;;4881533;28;89049;-85
2023/05/24 06:13:27;;;;;;;5.90;3.28;;;21.90;65.00;;;;;;4879293;28;89023;-90
2023/05/24 06:15:53;;;;;;;6.72;3.65;;;21.90;65.10;;;;;;4880519;28;90642;-90
2023/05/24 06:18:19;;;;;;;5.05;2.97;;;21.90;65.00;;;;;;4885153;28;90408;-86
2023/05/24 06:23:11;;;;;;;7.00;2.92;;;21.90;65.10;;;;;;4887363;28;87085;-84
2023/05/24 06:25:37;;;;;;;10.10;3.38;;;22.00;65.00;;;;;;4888742;28;88086;-89
2023/05/24 06:28:03;;;;;;;8.85;3.50;;;22.10;61.70;;;;;;4884687;28;91000;-88
2023/05/24 06:30:29;;;;;;;8.73;3.75;;;22.10;61.30;;;;;;4884543;28;88163;-89
2023/05/24 06:32:55;;;;;;;6.57;3.40;;;22.10;61.50;;;;;;4880814;28;87894;-88
2023/05/24 06:35:21;;;;;;;28.83;6.57;;;22.10;60.70;;;;;;4881861;28;89079;-87
2023/05/24 06:37:47;;;;;;;20.88;4.53;;;22.20;60.00;;;;;;4883530;28;88421;-89
2023/05/24 06:40:13;;;;;;;24.38;6.22;;;22.10;60.00;;;;;;4882164;28;87067;-88
2023/05/24 06:42:39;;;;;;;32.22;7.70;;;22.10;59.90;;;;;;4882008;28;89723;-90
2023/05/24 06:45:05;;;;;;;36.80;8.32;;;22.10;60.20;;;;;;4880412;28;91444;-88
2023/05/24 06:47:31;;;;;;;30.10;8.35;;;22.20;59.30;;;;;;4884170;28;89259;-88
2023/05/24 06:49:56;;;;;;;33.30;8.60;;;22.20;59.40;;;;;;4884750;28;87394;-87
2023/05/24 06:52:22;;;;;;;35.42;7.72;;;22.10;58.70;;;;;;4883718;28;89661;-88
2023/05/24 06:54:49;;;;;;;39.50;9.32;;;22.10;58.90;;;;;;4900938;28;90477;-88
2023/05/24 06:57:14;;;;;;;33.03;8.60;;;22.10;59.30;;;;;;4875600;28;90386;-88
2023/05/24 06:59:40;;;;;;;39.53;9.55;;;22.10;58.30;;;;;;4883221;28;90782;-89
2023/05/24 07:02:05;;;;;;;38.13;8.60;;;22.10;58.20;;;;;;4884861;28;87677;-87
2023/05/24 07:04:31;;;;;;;30.98;8.77;;;22.10;57.40;;;;;;4885337;28;87979;-89
2023/05/24 07:06:57;;;;;;;36.70;8.90;;;22.10;58.30;;;;;;4881991;28;88024;-89
2023/05/24 07:09:23;;;;;;;25.08;8.15;;;22.10;58.00;;;;;;4881009;28;87592;-90
2023/05/24 07:11:48;;;;;;;31.13;7.90;;;22.10;57.60;;;;;;4883896;28;88700;-89
2023/05/24 07:14:14;;;;;;;29.08;8.38;;;22.10;57.80;;;;;;4880864;28;90725;-91
2023/05/24 07:16:40;;;;;;;31.83;8.38;;;22.10;57.30;;;;;;4881261;28;90534;-89
2023/05/24 07:19:06;;;;;;;29.65;7.93;;;22.10;57.50;;;;;;4881420;28;88060;-89
2023/05/24 07:21:32;;;;;;;29.20;9.05;;;22.10;57.30;;;;;;4880965;28;89617;-89
2023/05/24 07:23:57;;;;;;;25.92;8.00;;;22.10;57.30;;;;;;4875875;28;89249;-88
2023/05/24 07:26:23;;;;;;;26.88;8.18;;;22.10;56.40;;;;;;4880621;28;88521;-89
2023/05/24 07:28:49;;;;;;;22.35;6.57;;;22.10;57.00;;;;;;4877816;28;88237;-90
2023/05/24 07:31:15;;;;;;;35.38;8.65;;;22.10;56.20;;;;;;4876917;28;89419;-89
2023/05/24 07:33:41;;;;;;;24.63;7.22;;;22.10;56.40;;;;;;4877623;28;91099;-90
2023/05/24 07:36:07;;;;;;;26.23;8.05;;;22.10;56.50;;;;;;4880730;28;88265;-89
2023/05/24 07:38:33;;;;;;;23.50;7.13;;;22.20;57.00;;;;;;4877209;28;87715;-88
2023/05/24 07:41:00;;;;;;;20.85;6.63;;;22.10;56.10;;;;;;4877997;28;89717;-89
2023/05/24 07:43:26;;;;;;;26.83;7.03;;;22.10;55.80;;;;;;4883989;28;90780;-88
2023/05/24 07:45:52;;;;;;;23.20;6.30;;;22.10;55.90;;;;;;4879508;28;89746;-88
2023/05/24 07:48:19;;;;;;;23.45;8.07;;;22.10;55.90;;;;;;4879653;28;89002;-86
2023/05/24 07:50:47;;;;;;;42.67;6.40;;;22.20;56.20;;;;;;4882495;28;87881;-86
2023/05/24 07:53:16;;;;;;;21.70;7.03;;;22.30;56.10;;;;;;4881133;28;88061;-87
2023/05/24 07:55:43;;;;;;;30.33;7.80;;;22.30;56.20;;;;;;4894934;28;90660;-87
2023/05/24 07:58:09;;;;;;;27.80;6.63;;;22.40;55.10;;;;;;4880210;28;88213;-93
2023/05/24 08:00:35;;;;;;;25.33;6.47;;;22.40;54.90;;;;;;4882648;28;87582;-85
2023/05/24 08:03:00;;;;;;;24.10;6.93;;;22.50;54.70;;;;;;4880829;28;88750;-84
2023/05/24 08:05:26;;;;;;;24.13;6.20;;;22.50;54.60;;;;;;4885248;28;87686;-84
2023/05/24 08:07:52;;;;;;;20.77;5.75;;;22.50;54.70;;;;;;4885118;28;88292;-84
2023/05/24 08:10:18;;;;;;;21.77;5.88;;;22.60;55.10;;;;;;4884881;28;87692;-87
2023/05/24 08:12:44;;;;;;;25.10;5.82;;;22.60;55.30;;;;;;4885615;28;88724;-86
2023/05/24 08:15:10;;;;;;;18.83;5.45;;;22.60;56.00;;;;;;4883493;28;90220;-86
2023/05/24 08:17:37;;;;;;;20.48;6.32;;;22.60;56.40;;;;;;4887370;28;87291;-86
2023/05/24 08:20:05;;;;;;;23.38;6.68;;;22.50;56.60;;;;;;4886719;28;87399;-86
2023/05/24 08:22:31;;;;;;;25.50;6.47;;;22.50;57.50;;;;;;4884468;28;89003;-85
2023/05/24 08:24:57;;;;;;;29.60;7.00;;;22.40;57.60;;;;;;4885079;28;89602;-86
2023/05/24 08:27:23;;;;;;;22.38;6.30;;;22.40;58.20;;;;;;4886270;28;87328;-84
2023/05/24 08:29:48;;;;;;;35.10;6.32;;;22.40;58.20;;;;;;4887072;28;87666;-87
2023/05/24 08:32:14;;;;;;;21.42;6.32;;;22.50;57.20;;;;;;4884012;28;90556;-86
2023/05/24 08:34:40;;;;;;;25.77;5.68;;;22.60;57.70;;;;;;4885454;28;87778;-86
2023/05/24 08:37:08;;;;;;;19.25;5.53;;;22.60;55.40;;;;;;4886620;28;88736;-87
2023/05/24 08:39:33;;;;;;;19.13;5.30;;;22.60;57.20;;;;;;4885245;28;87371;-84
2023/05/24 08:41:59;;;;;;;21.05;5.15;;;22.60;57.80;;;;;;4886811;28;88070;-84
2023/05/24 08:44:28;;;;;;;17.30;5.22;;;22.60;57.40;;;;;;4883617;28;89339;-84
2023/05/24 08:46:55;;;;;;;20.52;5.63;;;22.70;57.80;;;;;;4883386;28;87804;-85
2023/05/24 08:49:20;;;;;;;20.13;5.80;;;22.80;57.50;;;;;;4885637;28;87401;-86
2023/05/24 08:51:47;;;;;;;19.98;5.30;;;22.90;57.50;;;;;;4887437;28;88104;-87
2023/05/24 08:54:14;;;;;;;19.85;5.65;;;22.80;57.30;;;;;;4886504;28;87641;-84
2023/05/24 08:56:40;;;;;;;18.50;5.22;;;22.70;57.90;;;;;;4884725;28;87107;-88
2023/05/24 08:59:10;;;;;;;15.88;4.93;;;22.70;58.10;;;;;;4884809;28;89293;-88
2023/05/24 09:01:38;;;;;;;13.50;4.75;;;22.70;57.50;;;;;;4885997;28;89425;-87
2023/05/24 09:04:05;;;;;;;20.08;5.18;;;22.70;57.80;;;;;;4885161;28;90977;-87
2023/05/24 09:06:32;;;;;;;23.77;4.82;;;22.70;58.10;;;;;;4885548;28;87428;-85
2023/05/24 09:09:00;;;;;;;30.52;5.75;;;22.70;58.10;;;;;;4884820;28;87616;-86
2023/05/24 09:11:27;;;;;;;20.48;5.53;;;22.80;58.30;;;;;;4884383;28;88715;-84
2023/05/24 09:13:54;;;;;;;16.17;5.22;;;22.70;58.10;;;;;;4886779;28;88175;-84
2023/05/24 09:16:20;;;;;;;13.88;4.22;;;22.70;58.20;;;;;;4887645;28;87893;-84
2023/05/24 09:18:46;;;;;;;16.85;5.03;;;22.80;57.00;;;;;;4887752;28;88045;-84
2023/05/24 09:21:12;;;;;;;17.58;5.57;;;22.80;56.90;;;;;;4886402;28;87857;-84
2023/05/24 09:23:40;;;;;;;16.85;5.32;;;22.70;56.80;;;;;;4885152;28;90392;-87
2023/05/24 09:26:08;;;;;;;19.10;5.15;;;22.70;56.90;;;;;;4885043;28;89496;-89
2023/05/24 09:28:34;;;;;;;22.73;5.88;;;22.80;56.90;;;;;;4886551;28;87814;-87
2023/05/24 09:31:02;;;;;;;16.98;5.13;;;22.80;56.90;;;;;;4888248;28;88158;-87
2023/05/24 09:33:30;;;;;;;23.73;5.45;;;22.70;57.10;;;;;;4868801;28;90077;-85
2023/05/24 09:36:00;;;;;;;17.10;5.25;;;22.70;57.20;;;;;;4886072;28;88050;-88
2023/05/24 09:38:26;;;;;;;14.18;5.18;;;22.70;57.70;;;;;;4884011;28;90846;-86
2023/05/24 09:41:00;;;;;;;16.17;5.15;;;22.80;57.90;;;;;;4886502;28;93071;-86
2023/05/24 09:43:25;;;;;;;17.05;5.70;;;22.70;58.70;;;;;;4902273;28;96826;-86
2023/05/24 09:45:52;;;;;;;22.52;5.70;;;22.80;58.00;;;;;;4887433;28;92141;-87
2023/05/24 09:48:19;;;;;;;24.77;6.93;;;22.80;58.10;;;;;;4883587;28;93934;-85
2023/05/24 09:51:08;;;;;;;31.38;6.05;;;22.80;58.30;;;;;;4882801;28;94845;-87
2023/05/24 09:53:35;;;;;;;33.00;6.85;;;22.90;58.50;;;;;;4881215;28;94794;-83
2023/05/24 09:56:09;;;;;;;20.80;4.82;;;23.00;58.50;;;;;;4881378;28;93002;-86
2023/05/24 09:58:35;;;;;;;17.60;5.72;;;22.90;54.80;;;;;;4883004;28;92423;-88
2023/05/24 10:01:19;;;;;;;19.67;5.78;;;22.90;57.30;;;;;;4884073;28;92722;-86
2023/05/24 10:03:57;;;;;;;18.40;5.05;;;23.00;57.60;;;;;;4883585;28;96903;-87
2023/05/24 10:06:23;;;;;;;19.40;5.30;;;23.00;57.10;;;;;;4901830;28;93139;-86
2023/05/24 10:08:53;;;;;;;20.40;5.47;;;23.00;57.20;;;;;;4887654;28;92351;-85
2023/05/24 10:11:19;;;;;;;20.67;5.57;;;23.00;57.30;;;;;;4898905;28;94703;-90
2023/05/24 10:13:47;;;;;;;22.23;5.20;;;23.00;57.40;;;;;;4883593;28;93420;-89
2023/05/24 10:16:13;;;;;;;16.95;5.00;;;22.90;58.00;;;;;;4883453;28;93912;-87
2023/05/24 10:18:39;;;;;;;18.35;5.35;;;23.00;57.90;;;;;;4881290;28;93252;-84
2023/05/24 10:21:09;;;;;;;15.68;5.03;;;22.90;58.10;;;;;;4881647;28;92670;-88
2023/05/24 10:23:42;;;;;;;25.10;5.38;;;22.80;58.20;;;;;;4881775;28;93192;-84
2023/05/24 10:26:10;;;;;;;18.15;4.95;;;22.70;58.10;;;;;;4880965;28;92266;-90
2023/05/24 10:28:41;;;;;;;15.18;4.30;;;22.60;54.30;;;;;;4899222;28;93552;-84
2023/05/24 10:31:14;;;;;;;15.60;4.80;;;22.60;55.80;;;;;;4883670;28;93115;-86
2023/05/24 10:33:43;;;;;;;21.88;5.53;;;22.70;55.40;;;;;;4882493;28;92843;-85
2023/05/24 10:36:11;;;;;;;16.85;4.53;;;22.70;55.30;;;;;;4896623;28;92558;-88
2023/05/24 10:38:41;;;;;;;14.45;4.75;;;22.70;55.30;;;;;;4882979;28;92443;-87
2023/05/24 10:41:07;;;;;;;20.88;4.95;;;22.70;55.50;;;;;;4884236;28;94055;-86
2023/05/24 10:43:37;;;;;;;18.00;4.85;;;22.70;55.70;;;;;;4879097;28;93887;-83
2023/05/24 10:46:03;;;;;;;17.50;4.18;;;22.80;56.00;;;;;;4884916;28;92861;-85
2023/05/24 10:48:30;;;;;;;19.25;4.07;;;22.70;56.10;;;;;;4882163;28;92420;-87
2023/05/24 10:50:56;;;;;;;13.35;4.55;;;22.70;56.80;;;;;;4882227;28;93107;-85
2023/05/24 10:53:25;;;;;;;20.58;4.82;;;22.70;56.70;;;;;;4882077;28;93188;-85
2023/05/24 10:56:05;;;;;;;17.00;4.88;;;22.70;56.80;;;;;;4883575;28;92616;-85
2023/05/24 10:58:36;;;;;;;17.85;4.75;;;22.70;56.90;;;;;;4883618;28;92034;-83
2023/05/24 11:01:02;;;;;;;21.95;4.43;;;22.70;57.00;;;;;;4897832;28;94315;-83
2023/05/24 11:03:32;;;;;;;13.90;4.32;;;22.70;57.40;;;;;;4880717;28;95167;-84
2023/05/24 11:05:58;;;;;;;19.35;5.53;;;22.80;57.50;;;;;;4881145;28;93671;-86
2023/05/24 11:08:34;;;;;;;18.80;4.43;;;22.80;57.70;;;;;;4879938;28;92852;-84
2023/05/24 11:11:10;;;;;;;16.02;4.63;;;22.80;57.90;;;;;;4880986;28;94876;-85
2023/05/24 11:13:37;;;;;;;16.25;4.43;;;22.80;57.80;;;;;;4883136;28;92743;-86
2023/05/24 11:16:04;;;;;;;21.65;4.68;;;22.80;58.00;;;;;;4882195;28;92912;-86
2023/05/24 11:18:30;;;;;;;18.90;5.00;;;22.70;57.90;;;;;;4882285;28;93134;-86
2023/05/24 11:20:58;;;;;;;16.42;4.70;;;22.70;58.10;;;;;;4883302;28;92648;-85
2023/05/24 11:23:24;;;;;;;18.02;5.75;;;22.70;58.00;;;;;;4897036;28;94055;-84
2023/05/24 11:25:51;;;;;;;17.38;4.50;;;22.70;58.30;;;;;;4882260;28;93065;-85
2023/05/24 11:28:17;;;;;;;20.48;5.80;;;22.70;58.40;;;;;;4882269;28;93376;-86
2023/05/24 11:30:47;;;;;;;19.17;4.10;;;22.70;59.00;;;;;;4883482;28;94026;-83
2023/05/24 11:33:19;;;;;;;17.50;5.20;;;22.70;58.40;;;;;;4878530;28;96983;-86
2023/05/24 11:35:46;;;;;;;15.52;5.47;;;22.70;58.60;;;;;;4883792;28;93040;-87
2023/05/24 11:38:15;;;;;;;14.65;4.85;;;22.70;58.30;;;;;;4882259;28;93041;-86
2023/05/24 11:40:44;;;;;;;15.02;4.50;;;22.70;59.00;;;;;;4901370;28;95325;-86
2023/05/24 11:43:14;;;;;;;;;;;22.60;58.80;;;;;;4887086;28;93165;-85
2023/05/24 11:45:41;;;;;;;18.98;5.07;;;22.60;58.90;;;;;;4888599;28;93396;-86
2023/05/24 11:48:08;;;;;;;18.52;4.65;;;22.60;59.00;;;;;;4884730;28;91732;-88
2023/05/24 11:50:39;;;;;;;21.45;4.53;;;22.60;59.10;;;;;;4872465;28;96528;-87
2023/05/24 11:53:05;;;;;;;16.70;4.82;;;22.60;58.40;;;;;;4879171;28;96209;-84
2023/05/24 11:55:31;;;;;;;9.35;4.30;;;22.60;58.70;;;;;;4882920;28;94049;-85
2023/05/24 11:58:00;;;;;;;16.02;4.78;;;22.60;58.20;;;;;;4882181;28;92547;-84
2023/05/24 12:00:27;;;;;;;15.90;4.53;;;22.60;58.30;;;;;;4882882;28;93020;-84
2023/05/24 12:02:56;;;;;;;14.63;4.25;;;22.60;58.20;;;;;;4882392;28;92742;-87
2023/05/24 12:05:22;;;;;;;13.52;4.93;;;22.60;58.30;;;;;;4884578;28;92639;-85
2023/05/24 12:07:58;;;;;;;17.38;4.95;;;22.70;57.70;;;;;;4884938;28;92409;-86
2023/05/24 12:10:24;;;;;;;14.48;4.00;;;22.70;57.90;;;;;;4884540;28;94510;-85
2023/05/24 12:12:49;;;;;;;12.43;4.55;;;22.60;57.80;;;;;;4884671;28;92311;-85
2023/05/24 12:15:17;;;;;;;12.32;4.13;;;22.60;57.70;;;;;;4879368;28;99779;-85
2023/05/24 12:17:43;;;;;;;18.23;4.03;;;22.60;57.60;;;;;;4877982;28;93055;-85
2023/05/24 12:20:10;;;;;;;14.82;4.40;;;22.60;57.70;;;;;;4879185;28;94699;-85
2023/05/24 12:22:36;;;;;;;14.77;4.25;;;22.60;57.70;;;;;;4881104;28;94453;-86
2023/05/24 12:25:02;;;;;;;18.02;4.55;;;22.50;57.80;;;;;;4879689;28;93351;-91
2023/05/24 12:27:30;;;;;;;16.20;4.60;;;22.60;57.70;;;;;;4880171;28;93237;-90
2023/05/24 12:29:56;;;;;;;18.70;5.90;;;22.50;57.80;;;;;;4880712;28;94174;-89
2023/05/24 12:32:22;;;;;;;29.40;7.65;;;22.60;57.80;;;;;;4879705;28;93032;-90
2023/05/24 12:34:49;;;;;;;28.13;8.02;;;22.60;57.70;;;;;;4883769;28;92063;-88
2023/05/24 12:37:17;;;;;;;26.83;8.38;;;22.60;57.90;;;;;;4881083;28;91995;-88
2023/05/24 12:39:43;;;;;;;30.15;8.48;;;22.60;58.30;;;;;;4881360;28;93153;-92
2023/05/24 12:42:11;;;;;;;31.00;8.68;;;22.50;58.20;;;;;;4877145;28;94624;-88
2023/05/24 12:44:37;;;;;;;24.33;7.43;;;22.60;58.30;;;;;;4881948;28;94056;-92
2023/05/24 12:47:05;;;;;;;34.55;9.57;;;22.60;58.30;;;;;;4880251;28;93217;-91